Chino Valley, AZ (86323)

5:55 PM MST on August 24, 2016 (GMT -0700)
Chino Valley W Rd 3 N | | Change Station

Elev 4678 ft 34.78 °N, 112.49 °W | Updated 26 seconds ago

Scattered Clouds
Scattered Clouds
77.2 °F
Feels Like 79 °F
N
5.6
Wind Variable Wind from ESE
Gusts 7.4 mph

Today
High -- | Low -- °F
--% Chance of Precip.
Yesterday
High -- | Low -- °F
Precip. -- in
Pressure 29.99 in
Visibility 10.0 miles
Clouds Scattered Clouds 8500 ft
Heat Index 79 °F
Dew Point 59 °F
Humidity 54%
Rainfall 0.11 in
Snow Depth Not available.
5:57 AM 7:06 PM
Waning Gibbous, 51% visible
METAR KPRC 250053Z 16007KT 10SM VCTS SCT085 23/11 A3019 RMK AO2 LTG DSNT S-W RAE12 SLP154 P0000 T02280111
Pressure 29.99 in
Visibility 10.0 miles
Clouds Scattered Clouds 8500 ft
Heat Index 79 °F
Dew Point 59 °F
Humidity 54%
Rainfall 0.11 in
Snow Depth Not available.
5:57 AM 7:06 PM
Waning Gibbous, 51% visible
METAR KPRC 250053Z 16007KT 10SM VCTS SCT085 23/11 A3019 RMK AO2 LTG DSNT S-W RAE12 SLP154 P0000 T02280111

10-Day Weather Forecast

Almanac

Astronomy

Aug. 24, 2016 Rise Set
Actual Time
Civil Twilight
Nautical Twilight
Astronomical Twilight
Moon
Length of Visible Light
Length of Day
Tomorrow will be .
, % of the Moon is Illuminated

Today's Extremes

State Highs State Lows

Community

WunderPhotos

Upload Photos

1,934,748 photos uploaded!

WunderBlog® & News

Nearby

Air Quality

  Air Quality AQ Index Pollutant
Not available.

Snow Depth

Station Depth Elevation

Earthquake Activity

City Distance Mag. Time & Date
Minimum magnitude displayed is 2.5.

Coastal Water Temperatures

Place Temperature

Stations

Nearby Weather Stations

Station Location Temp. Windchill Dew Point Humidity Wind Precip. Elev Updated Type
                   

Watches & Warnings

There are currently no watches in effect.